createdAt,value
2023-02-14T00:02:42.668Z,62.92
2023-02-14T00:05:30.860Z,46.15
2023-02-14T00:08:13.550Z,38.22
2023-02-14T00:10:55.853Z,41.60
2023-02-14T00:13:44.560Z,48.83
2023-02-14T00:16:33.737Z,39.47
2023-02-14T00:19:18.889Z,44.63
2023-02-14T00:22:07.559Z,38.55
2023-02-14T00:24:56.486Z,44.67
2023-02-14T00:27:45.695Z,37.85
2023-02-14T00:30:27.899Z,44.80
2023-02-14T00:33:20.566Z,50.33
2023-02-14T00:36:02.867Z,42.90
2023-02-14T00:38:51.549Z,42.00
2023-02-14T00:41:33.856Z,54.35
2023-02-14T00:44:22.597Z,54.75
2023-02-14T00:47:04.770Z,44.35
2023-02-14T00:49:53.612Z,49.58
2023-02-14T00:52:36.805Z,51.10
2023-02-14T00:55:25.525Z,50.90
2023-02-14T00:58:14.610Z,54.47
2023-02-14T01:01:02.964Z,65.07
2023-02-14T01:03:58.516Z,76.82
2023-02-14T01:06:46.881Z,83.85
2023-02-14T01:09:29.603Z,94.22
2023-02-14T01:12:18.575Z,101.97
2023-02-14T01:15:00.922Z,107.20
2023-02-14T01:17:49.585Z,106.40
2023-02-14T01:20:38.632Z,102.13
2023-02-14T01:23:26.811Z,105.65
2023-02-14T01:26:13.576Z,100.68
2023-02-14T01:29:02.890Z,94.45
2023-02-14T01:31:45.598Z,110.68
2023-02-14T01:34:27.936Z,101.53
2023-02-14T01:37:16.542Z,92.90
2023-02-14T01:40:04.901Z,95.00
2023-02-14T01:42:46.655Z,89.95
2023-02-14T01:45:29.233Z,87.15
2023-02-14T01:48:18.592Z,84.30
2023-02-14T01:51:01.092Z,71.93
2023-02-14T01:53:50.571Z,77.68
2023-02-14T01:56:44.542Z,73.43
2023-02-14T01:59:31.917Z,95.25
2023-02-14T02:02:20.578Z,75.18
2023-02-14T02:05:11.557Z,86.25
2023-02-14T02:08:06.601Z,85.65
2023-02-14T02:10:48.872Z,79.35
2023-02-14T02:13:37.628Z,82.30
2023-02-14T02:16:36.880Z,93.25
2023-02-14T02:20:03.575Z,143.73
2023-02-14T02:23:16.512Z,88.97
2023-02-14T02:26:32.554Z,101.35
2023-02-14T02:29:32.764Z,103.13
2023-02-14T02:32:30.616Z,86.18
2023-02-14T02:35:12.782Z,102.03
2023-02-14T02:38:19.570Z,91.18
2023-02-14T02:41:34.559Z,87.57
2023-02-14T02:44:58.974Z,96.57
2023-02-14T02:47:46.883Z,91.70
2023-02-14T02:51:11.540Z,93.32
2023-02-14T02:54:08.541Z,105.63
2023-02-14T02:56:58.795Z,92.05
2023-02-14T02:59:56.588Z,94.15
2023-02-14T03:03:03.980Z,102.75
2023-02-14T03:05:53.501Z,94.55
2023-02-14T03:08:35.745Z,89.50
2023-02-14T03:11:26.613Z,103.57
2023-02-14T03:14:32.802Z,80.53
2023-02-14T03:17:25.514Z,80.93
2023-02-14T03:20:31.414Z,98.53
2023-02-14T03:23:32.523Z,77.32
2023-02-14T03:26:22.897Z,80.00
2023-02-14T03:29:17.585Z,89.38
2023-02-14T03:32:16.612Z,72.43
2023-02-14T03:35:37.545Z,64.82
2023-02-14T03:39:13.561Z,64.35
2023-02-14T03:42:06.301Z,63.58
2023-02-14T03:44:59.641Z,57.25
2023-02-14T03:47:44.938Z,59.22
2023-02-14T03:50:36.679Z,64.97
2023-02-14T03:53:21.826Z,62.58
2023-02-14T03:56:21.554Z,59.35
2023-02-14T03:59:15.505Z,59.78
2023-02-14T04:02:27.897Z,56.13
2023-02-14T04:05:21.586Z,50.85
2023-02-14T04:08:03.684Z,50.55
2023-02-14T04:10:53.619Z,47.55
2023-02-14T04:13:38.282Z,50.90
2023-02-14T04:16:27.686Z,55.35
2023-02-14T04:19:25.074Z,46.35
2023-02-14T04:22:13.568Z,56.55
2023-02-14T04:25:02.540Z,55.33
2023-02-14T04:27:51.524Z,43.58
2023-02-14T04:30:40.653Z,49.63
2023-02-14T04:33:22.939Z,58.97
2023-02-14T04:36:11.539Z,52.95
2023-02-14T04:38:53.856Z,57.97
2023-02-14T04:41:42.592Z,52.72
2023-02-14T04:44:24.947Z,51.17
2023-02-14T04:47:15.052Z,60.90
2023-02-14T04:49:56.896Z,53.22
2023-02-14T04:52:45.539Z,51.03
2023-02-14T04:55:27.834Z,53.65
2023-02-14T04:58:16.465Z,46.85
2023-02-14T05:01:05.465Z,52.63
2023-02-14T05:04:01.529Z,65.18
2023-02-14T05:06:50.524Z,40.03
2023-02-14T05:09:33.437Z,70.57
2023-02-14T05:12:24.510Z,39.22
2023-02-14T05:15:06.963Z,74.30
2023-02-14T05:17:55.642Z,44.17
2023-02-14T05:20:37.813Z,56.08
2023-02-14T05:23:26.522Z,44.88
2023-02-14T05:26:08.813Z,56.58
2023-02-14T05:28:57.569Z,46.22
2023-02-14T05:31:39.900Z,48.25
2023-02-14T05:34:28.601Z,34.15
2023-02-14T05:37:10.840Z,56.78
2023-02-14T05:39:59.571Z,51.15
2023-02-14T05:42:41.805Z,49.55
2023-02-14T05:45:31.666Z,57.15
2023-02-14T05:48:14.438Z,59.67
2023-02-14T05:51:03.523Z,59.60
2023-02-14T05:53:46.852Z,49.97
2023-02-14T05:56:35.967Z,57.40
2023-02-14T05:59:17.983Z,48.58
2023-02-14T06:02:06.570Z,44.08
2023-02-14T06:05:01.406Z,48.75
2023-02-14T06:07:51.622Z,54.28
2023-02-14T06:10:33.810Z,50.80
2023-02-14T06:13:22.606Z,56.50
2023-02-14T06:16:04.840Z,62.17
2023-02-14T06:18:53.620Z,44.80
2023-02-14T06:21:35.896Z,42.55
2023-02-14T06:24:24.513Z,51.25
2023-02-14T06:27:08.848Z,38.03
2023-02-14T06:29:57.585Z,48.15
2023-02-14T06:32:39.769Z,40.38
2023-02-14T06:35:28.599Z,45.15
2023-02-14T06:38:10.977Z,46.05
2023-02-14T06:41:00.703Z,36.00
2023-02-14T06:43:50.467Z,44.03
2023-02-14T06:46:38.796Z,42.65
2023-02-14T06:49:21.536Z,47.50
2023-02-14T06:52:12.346Z,40.15
2023-02-14T06:54:55.530Z,38.75
2023-02-14T06:57:43.866Z,46.10
2023-02-14T07:00:26.852Z,42.70
2023-02-14T07:03:15.838Z,43.38
2023-02-14T07:06:06.538Z,45.47
2023-02-14T07:08:48.861Z,43.60
2023-02-14T07:11:37.536Z,38.05
2023-02-14T07:14:20.821Z,45.60
2023-02-14T09:43:31.883Z,16.93
2023-02-14T09:49:06.965Z,21.17
2023-02-14T09:51:59.212Z,22.98
2023-02-14T09:54:43.901Z,19.23
2023-02-14T09:57:41.175Z,19.15
2023-02-14T10:00:37.996Z,20.45
2023-02-14T10:03:51.200Z,27.30
2023-02-14T10:07:11.950Z,24.58
2023-02-14T10:10:10.247Z,30.25
2023-02-14T10:13:02.936Z,24.00
2023-02-14T10:15:57.786Z,24.55
2023-02-14T10:18:54.991Z,26.92
2023-02-14T10:21:49.161Z,25.73
2023-02-14T10:24:43.888Z,19.88
2023-02-14T10:27:49.254Z,16.55
2023-02-14T10:30:33.042Z,25.88
2023-02-14T10:33:26.201Z,19.70
2023-02-14T10:36:25.046Z,30.70
2023-02-14T10:39:24.931Z,31.23
2023-02-14T10:42:33.931Z,29.95
2023-02-14T10:45:42.810Z,19.15
2023-02-14T10:48:45.901Z,18.15
2023-02-14T10:51:35.080Z,15.70
2023-02-14T10:55:00.947Z,14.80
2023-02-14T10:57:47.092Z,15.05
2023-02-14T11:00:41.215Z,10.90
2023-02-14T11:03:30.473Z,16.60
2023-02-14T11:06:13.918Z,14.48
2023-02-14T11:09:02.121Z,16.65
2023-02-14T11:11:46.918Z,15.30
2023-02-14T11:14:39.184Z,22.63
2023-02-14T11:17:38.956Z,17.55
2023-02-14T11:20:24.002Z,18.25
2023-02-14T11:23:12.887Z,17.98
2023-02-14T11:26:03.803Z,14.65
2023-02-14T11:29:04.943Z,19.50
2023-02-14T11:31:47.253Z,16.95
2023-02-14T11:34:47.980Z,16.38
2023-02-14T11:37:44.464Z,21.08
2023-02-14T11:40:51.897Z,14.80
2023-02-14T11:43:50.289Z,14.60
2023-02-14T11:46:34.025Z,15.73
2023-02-14T11:49:43.159Z,10.95
2023-02-14T11:52:26.897Z,13.15
2023-02-14T11:55:15.183Z,15.65
2023-02-14T11:57:57.964Z,21.00
2023-02-14T12:00:46.145Z,21.60
2023-02-14T12:03:29.239Z,17.55
2023-02-14T12:06:18.099Z,18.25
2023-02-14T12:09:17.885Z,19.67
2023-02-14T12:12:06.071Z,21.73
2023-02-14T12:14:54.888Z,18.23
2023-02-14T12:17:41.180Z,24.90
2023-02-14T12:20:42.982Z,19.20
2023-02-14T12:23:43.547Z,16.35
2023-02-14T12:26:58.885Z,16.90
2023-02-14T12:29:48.712Z,20.90
2023-02-14T12:32:43.903Z,13.60
2023-02-14T12:35:59.156Z,22.90
2023-02-14T12:39:25.854Z,20.33
2023-02-14T12:42:39.264Z,24.23
2023-02-14T12:45:57.079Z,20.08
2023-02-14T12:49:10.831Z,22.33
2023-02-14T12:52:15.888Z,33.38
2023-02-14T12:55:16.130Z,21.58
2023-02-14T12:58:10.885Z,25.52
2023-02-14T13:01:12.121Z,29.10
2023-02-14T13:04:22.165Z,37.95
2023-02-14T13:07:16.264Z,33.65
2023-02-14T13:10:19.896Z,27.20
2023-02-14T13:13:29.862Z,26.33
2023-02-14T13:16:42.987Z,30.65
2023-02-14T13:19:55.213Z,30.73
2023-02-14T13:22:44.945Z,25.27
2023-02-14T13:25:38.274Z,32.88
2023-02-14T13:28:28.312Z,31.73
2023-02-14T13:31:11.285Z,36.40
2023-02-14T13:36:48.432Z,35.95
2023-02-14T13:39:45.870Z,40.97
2023-02-14T13:42:56.210Z,43.92
2023-02-14T13:45:44.917Z,43.75
2023-02-14T13:48:38.900Z,47.05
2023-02-14T13:51:22.280Z,36.35
2023-02-14T13:54:28.223Z,37.83
2023-02-14T13:57:31.887Z,47.35
2023-02-14T14:00:26.809Z,46.20
2023-02-14T14:03:08.935Z,48.95
2023-02-14T14:06:19.343Z,64.65
2023-02-14T14:09:05.219Z,44.97
2023-02-14T14:12:00.550Z,45.25
2023-02-14T14:14:44.835Z,60.70
2023-02-14T14:17:34.132Z,54.65
2023-02-14T14:20:28.925Z,50.53
2023-02-14T14:23:53.347Z,60.55
2023-02-14T14:26:43.919Z,52.88
2023-02-14T14:29:43.283Z,57.47
2023-02-14T14:32:38.954Z,48.78
2023-02-14T14:35:31.274Z,47.80
2023-02-14T14:38:13.809Z,59.50
2023-02-14T14:40:57.190Z,52.70
2023-02-14T14:43:52.893Z,54.60
2023-02-14T14:46:42.231Z,54.00
2023-02-14T14:49:24.857Z,66.82
2023-02-14T14:52:17.653Z,62.28
2023-02-14T14:55:00.903Z,63.07
2023-02-14T14:57:58.185Z,54.25
2023-02-14T15:00:42.873Z,66.82
2023-02-14T15:03:34.907Z,56.10
2023-02-14T15:06:23.241Z,54.40
2023-02-14T15:09:39.884Z,56.92
2023-02-14T15:12:46.759Z,73.88
2023-02-14T15:15:35.817Z,59.15
2023-02-14T15:18:22.299Z,57.08
2023-02-14T15:21:13.928Z,55.25
2023-02-14T15:23:56.348Z,50.67
2023-02-14T15:26:44.917Z,73.53
2023-02-14T15:29:33.536Z,64.90
2023-02-14T15:32:22.888Z,46.35
2023-02-14T15:35:06.340Z,61.83
2023-02-14T15:37:55.928Z,77.55
2023-02-14T15:40:41.416Z,77.65
2023-02-14T15:43:40.911Z,70.18
2023-02-14T15:46:33.267Z,73.22
2023-02-14T15:49:28.954Z,90.10
2023-02-14T15:52:13.290Z,64.90
2023-02-14T15:55:01.878Z,75.70
2023-02-14T15:57:45.417Z,65.22
2023-02-14T16:00:34.968Z,87.03
2023-02-14T16:03:27.233Z,67.72
2023-02-14T16:06:37.904Z,74.30
2023-02-14T16:09:38.769Z,54.38
2023-02-14T16:12:39.874Z,69.93
2023-02-14T16:15:25.235Z,74.03
2023-02-14T16:18:41.249Z,64.10
2023-02-14T16:21:34.159Z,78.28
2023-02-14T16:24:22.871Z,80.83
2023-02-14T16:27:07.968Z,60.83
2023-02-14T16:29:56.952Z,68.72
2023-02-14T16:32:39.441Z,59.83
2023-02-14T16:35:29.847Z,66.60
2023-02-14T16:38:18.876Z,68.07
2023-02-14T16:41:08.860Z,61.90
2023-02-14T16:43:58.291Z,48.45
2023-02-14T16:46:43.186Z,49.28
2023-02-14T16:49:33.222Z,65.47
2023-02-14T16:52:24.084Z,55.72
2023-02-14T16:55:13.110Z,49.90
2023-02-14T16:57:57.917Z,58.20
2023-02-14T17:00:47.148Z,55.90
2023-02-14T17:03:29.877Z,55.85
2023-02-14T17:06:16.866Z,60.20
2023-02-14T17:09:07.904Z,60.05
2023-02-14T17:11:53.913Z,63.10
2023-02-14T17:14:47.914Z,51.38
2023-02-14T17:17:38.196Z,57.28
2023-02-14T17:20:21.868Z,64.97
2023-02-14T17:23:11.402Z,58.30
2023-02-14T17:25:52.922Z,60.70
2023-02-14T17:28:42.328Z,65.45
2023-02-14T17:31:24.876Z,61.67
2023-02-14T17:34:07.450Z,58.40
2023-02-14T17:36:55.988Z,63.50
2023-02-14T17:39:45.432Z,55.50
2023-02-14T17:42:26.885Z,69.10
2023-02-14T17:45:12.752Z,62.17
2023-02-14T17:48:01.866Z,69.10
2023-02-14T17:50:44.553Z,64.70
2023-02-14T17:53:35.076Z,76.30
2023-02-14T17:56:27.450Z,62.63
2023-02-14T17:59:09.873Z,55.50
2023-02-14T18:01:59.798Z,71.45
2023-02-14T18:04:44.855Z,61.83
2023-02-14T18:07:27.539Z,61.78
2023-02-14T18:10:17.138Z,63.65
2023-02-14T18:12:59.704Z,63.55
2023-02-14T18:15:48.961Z,60.75
2023-02-14T18:18:38.592Z,70.68
2023-02-14T18:21:25.232Z,56.72
2023-02-14T18:24:17.980Z,55.67
2023-02-14T18:27:00.881Z,69.70
2023-02-14T18:29:50.521Z,66.57
2023-02-14T18:32:33.934Z,52.35
2023-02-14T18:35:23.324Z,66.65
2023-02-14T18:38:06.141Z,67.38
2023-02-14T18:40:55.424Z,66.30
2023-02-14T18:43:39.027Z,73.95
2023-02-14T18:46:36.714Z,62.78
2023-02-14T18:49:21.104Z,66.82
2023-02-14T18:52:05.932Z,61.00
2023-02-14T18:54:54.911Z,59.75
2023-02-14T18:57:45.270Z,62.50
2023-02-14T19:00:29.838Z,57.08
2023-02-14T19:03:12.133Z,65.40
2023-02-14T19:06:00.946Z,57.88
2023-02-14T19:08:51.186Z,64.22
2023-02-14T19:11:36.900Z,76.53
2023-02-14T19:14:26.314Z,72.82
2023-02-14T19:17:08.896Z,66.43
2023-02-14T19:19:54.235Z,66.63
2023-02-14T19:22:42.832Z,58.45
2023-02-14T19:25:31.770Z,62.97
2023-02-14T19:28:20.834Z,57.67
2023-02-14T19:31:10.257Z,60.67
2023-02-14T19:33:53.837Z,64.25
2023-02-14T19:36:44.168Z,73.82
2023-02-14T19:39:27.853Z,70.07
2023-02-14T19:42:22.693Z,61.80
2023-02-14T19:45:11.830Z,61.70
2023-02-14T19:48:00.846Z,57.53
2023-02-14T19:50:50.085Z,52.60
2023-02-14T19:53:31.840Z,70.68
2023-02-14T19:56:14.594Z,57.05
2023-02-14T19:59:05.854Z,57.20
2023-02-14T20:01:53.297Z,56.20
2023-02-14T20:04:43.871Z,63.58
2023-02-14T20:07:33.834Z,62.42
2023-02-14T20:10:16.265Z,57.15
2023-02-14T20:13:04.866Z,58.42
2023-02-14T20:15:47.138Z,57.72
2023-02-14T20:18:35.861Z,57.47
2023-02-14T20:21:29.274Z,61.50
2023-02-14T20:24:19.434Z,55.10
2023-02-14T20:27:03.400Z,53.22
2023-02-14T20:29:52.895Z,56.17
2023-02-14T20:32:36.262Z,67.68
2023-02-14T20:35:24.797Z,69.18
2023-02-14T20:38:09.623Z,63.88
2023-02-14T20:40:59.198Z,68.43
2023-02-14T20:43:48.547Z,63.95
2023-02-14T20:46:30.959Z,72.97
2023-02-14T20:49:21.258Z,68.43
2023-02-14T20:52:03.766Z,66.72
2023-02-14T20:54:52.431Z,63.75
2023-02-14T20:57:33.824Z,65.88
2023-02-14T21:00:26.652Z,82.50
2023-02-14T21:03:08.889Z,67.57
2023-02-14T21:05:58.052Z,73.28
2023-02-14T21:08:40.798Z,73.35
2023-02-14T21:11:31.114Z,67.68
2023-02-14T21:14:13.885Z,64.00
2023-02-14T21:17:02.279Z,57.53
2023-02-14T21:19:43.821Z,63.88
2023-02-14T21:22:26.048Z,71.63
2023-02-14T21:25:14.866Z,71.10
2023-02-14T21:28:03.156Z,61.22
2023-02-14T21:30:45.913Z,74.63
2023-02-14T21:33:34.483Z,74.22
2023-02-14T21:36:20.870Z,61.08
2023-02-14T21:39:10.240Z,76.80
2023-02-14T21:41:52.781Z,70.45
2023-02-14T21:45:00.655Z,77.53
2023-02-14T21:47:47.846Z,73.40
2023-02-14T21:50:36.074Z,66.32
2023-02-14T21:53:18.771Z,71.03
2023-02-14T21:56:18.131Z,61.50
2023-02-14T21:59:03.146Z,75.28
2023-02-14T22:01:52.174Z,69.85
2023-02-14T22:04:33.858Z,72.35
2023-02-14T22:07:22.140Z,67.50
2023-02-14T22:10:03.824Z,57.90
2023-02-14T22:12:53.610Z,69.55
2023-02-14T22:15:35.871Z,80.65
2023-02-14T22:18:25.015Z,65.93
2023-02-14T22:21:11.798Z,70.10
2023-02-14T22:24:01.191Z,64.28
2023-02-14T22:26:48.786Z,67.15
2023-02-14T22:29:37.829Z,62.97
2023-02-14T22:32:20.579Z,59.53
2023-02-14T22:35:09.861Z,62.03
2023-02-14T22:37:58.756Z,70.68
2023-02-14T22:40:48.146Z,59.72
2023-02-14T22:43:36.809Z,57.90
2023-02-14T22:46:22.262Z,55.55
2023-02-14T22:49:10.766Z,69.90
2023-02-14T22:51:53.026Z,63.22
2023-02-14T22:54:41.807Z,67.00
2023-02-14T22:57:24.117Z,59.50
2023-02-14T23:00:18.787Z,63.63
2023-02-14T23:03:01.161Z,59.22
2023-02-14T23:05:49.791Z,61.60
2023-02-14T23:08:32.132Z,70.88
2023-02-14T23:11:26.736Z,60.40
2023-02-14T23:14:27.494Z,61.05
2023-02-14T23:17:29.818Z,64.53
2023-02-14T23:20:30.822Z,66.07
2023-02-14T23:23:19.796Z,67.75
2023-02-14T23:26:02.572Z,79.25
2023-02-14T23:28:51.949Z,70.47
2023-02-14T23:31:40.127Z,73.68
2023-02-14T23:34:22.811Z,72.90
2023-02-14T23:37:05.756Z,75.72
2023-02-14T23:39:56.097Z,73.00
2023-02-14T23:42:44.841Z,75.50
2023-02-14T23:45:42.853Z,78.47
2023-02-14T23:48:25.029Z,82.13
2023-02-14T23:51:14.850Z,84.28
2023-02-14T23:53:57.119Z,73.93
2023-02-14T23:56:45.756Z,81.18
2023-02-14T23:59:28.147Z,80.78
